My Meet Scores
Jaycee Albert, Naperville Gymnastics Club - MyMeetScores.com
Top100 | Top Teams | Upcoming Meets | Completed Meets | Latest | Add Scores | Help| Support | Bookmark and Share

Jaycee Albert, Naperville Gymnastics Club
Personal Bests
LevelVault BarsBeamFloorAA
39.1009.350 9.0009.10036.225
48.5758.850 8.9009.05034.875
69.3759.300 9.3009.52537.050
79.1757.200 8.7509.40033.275
XB8.4008.600 8.6508.30033.500
XG9.3009.450 9.5009.35037.600
Meet Scores
Date Meet Team Session Level Division Vault Bars Beam Floor AA
2022-01-21 Vegas Cup 2022 Naperville Gymnastics Club G3 7 C 8.700 7 6.550 12 8.750 6 9.275 5T 33.275 12
2022-01-14 2022 Bravo Classic Naperville Gymnastics Club 10B 7 Jr 9.000 10T 0.000 19 8.650 15 9.400 13T 27.050 19
2021-12-03 Flipstar's Home for the Holidays Naperville Gymnastics Club 2 7 Middle 9.175 5 7.200 8 7.675 6 8.875 4 32.925 6
2021-04-15 Illinois level 6 & Xcel Silver State Champion Naperville Gymnastics Club 07 6 Multiple 9.050 9T 9.125 23T 9.300 23T 9.325 28T 36.800 15T
2021-03-12 LUCKY INVITATIONAL Naperville Gymnastics Club A03 6 Jr B 8.800 3T 9.050 8 9.275 5 9.525 6T 36.650 3
2021-03-05 NGC Flip'r S.O.U.L. Invitational Naperville Gymnastics Club 10 6 Jr B 9.375 3 9.300 4 9.175 5T 9.200 7 37.050 4
2021-02-19 BIG Classic 2021 Naperville Gymnastics Club 2B 6 Junior A 9.025 6T 8.875 6 8.750 9T 9.200 8T 35.850 5
2021-01-14 2021 Bravo Classic Naperville Gymnastics Club 14 6 Sr 8.750 10T 8.050 10 9.125 6T 9.150 11 35.075 9
2020-12-04 Flipstar's Home for the Holidays Naperville Gymnastics Club 21 6 All 8.600 5 8.525 7 8.625 10 9.025 10 34.775 7T
2020-03-06 2020 Flip'r Invitational Naperville Gymnastics Club 2 6 JR 8.700 10T 8.750 10 8.750 7 8.775 12 34.975 11
2020-02-21 Kinetic Classic Naperville Gymnastics Club 01 6 Younger 8.525 48T 7.200 50 8.300 51T 8.800 51 32.825 54T
2020-02-14 Excalibur Cup Naperville Gymnastics Club 01B 6 Jr B 8.800 7 8.075 11T 7.775 11 9.100 11 33.750 11
2020-01-31 Buckeye Classic Naperville Gymnastics Club US2 6 B 9.300 4 8.000 14 9.225 4 9.075 8 35.600 8
2020-01-17 2020 Bravo Classic Naperville Gymnastics Club 11A 6 Child 8.650 14T 7.600 18 7.950 18 8.950 17 33.150 19
2020-01-10 Leenda's Island Adventure Naperville Gymnastics Club GG8 XG 10 & Under 8.825 4T 9.350 5 7.400 9 8.825 7 34.400 8
2019-05-03 2019 Region 5 Xcel Championships Naperville Gymnastics Club 09O XG CH A 9.250 3T 9.275 15T 9.175 20T 9.275 27T 36.975 11
2019-04-05 2019 Illinois XG, XP, XD State Championships Naperville Gymnastics Club 7 XG Ch B 9.300 5T 9.450 6T 9.500 5 9.350 10T 37.600 3
2019-03-08 Lucky Invite Naperville Gymnastics Club B03 XG Jr A 8.725 13T 9.150 10T 9.350 6 8.350 21 35.575 15
2019-03-01 NGCD Academy's 2019 Flip'r Invitational Naperville Gymnastics Club 2 XG Child 9.200 5T 9.075 9T 9.200 9 8.550 16 36.025 9
2019-02-23 Kinetic Classic 2019 Naperville Gymnastics Club 1 XG Younger 8.950 10T 9.150 10T 8.650 18T 8.500 21 35.250 19
2019-02-01 Wisconsin Dells Gymnastics Vacation Classic Naperville Gymnastics Club B7 4 Jr A 8.575 4 8.650 3 8.600 9T 9.050 3 34.875 3
2018-03-08 Level 4 & 5 State Naperville Gymnastics Club All 4 Ch C 8.500 21T 8.650 18 8.825 21 8.550 22T 34.525 21
2018-03-02 2018 Flip'r Invitational Naperville Gymnastics Club 6 4 Child B Age 8 B 3/16/ 8.525 12 8.750 10 8.425 12 8.650 9 34.350 11
2018-02-16 Big Classic Naperville Gymnastics Club 5B 4 Child A 8.050 13T 8.100 16 8.900 6T 8.500 15 33.550 13
2018-01-19 2018 Bravo Classic Naperville Gymnastics Club 12B 4 Child 7.800 22T 8.100 19T 8.500 19 8.375 24 32.775 22
2018-01-04 Leenda's Island Adventure Naperville Gymnastics Club P09 4 Jr A 8.275 8 8.850 9 8.675 10 8.300 11T 34.100 9
2017-12-15 2017 Aspire Classic Naperville Gymnastics Club 6A 4 Younger 7.600 16T 8.250 13 8.150 17 8.100 15T 32.100 16
2017-03-30 2017 Illinois Level 3 & 5 State Naperville Gymnastics Club All 3 Ch D 9.100 26 9.350 7 9.000 12T 8.775 23 36.225 16
2017-03-10 Lucky Invitational Naperville Gymnastics Club B03 3 Jr A 8.950 12 8.125 15 8.425 11T 9.100 10 34.600 13
2017-02-24 Kinetic Classic Naperville Gymnastics Club 4,5,6,7 3 All Ages 8.675 104T 8.250 97T 8.550 74T 8.550 93 34.025 94
2017-02-17 Midwest Open Naperville Gymnastics Club 2A 3 JR A 8.950 9 8.350 8 8.550 7 8.625 10 34.475 9
2017-02-03 2017 Gateway Challenge Naperville Gymnastics Club 5B 3 7 8.800 17 8.900 11 8.600 11 8.500 12 34.800 13
2017-01-07 2017 Flip'r Invitational Naperville Gymnastics Club 3 Lvl 3: Child 8.975 7 8.675 11 8.400 10 8.350 14 34.400 11
2016-12-09 St. Nick Invite Naperville Gymnastics Club 5 3 All 8.850 67T 7.600 81 8.450 69T 8.500 65T 33.400 73T
2016-02-20 Big Classic Naperville Gymnastics Club 3B XB All 8.400 5 8.250 5 8.550 5 8.300 3 33.500 5
2016-01-30 2016 Flip'R Invitational Naperville Gymnastics Club 1 XB 5-7 yrs 8.350 4 8.600 2 8.650 3 7.500 3 33.100 4
Get your scores on
a t-shirt, pin, or hoodie